sensor_id;sensor_type;location;lat;lon;timestamp;pressure;altitude;pressure_sealevel;temperature;humidity
63903;BME280;50072;50.678;13.938;2023-01-26T00:03:39;100215.97;;;1.77;90.61
63903;BME280;50072;50.678;13.938;2023-01-26T00:06:09;100223.88;;;1.77;90.79
63903;BME280;50072;50.678;13.938;2023-01-26T00:08:45;100212.53;;;1.81;90.69
63903;BME280;50072;50.678;13.938;2023-01-26T00:11:13;100207.19;;;1.78;90.73
63903;BME280;50072;50.678;13.938;2023-01-26T00:13:57;100216.16;;;1.88;90.55
63903;BME280;50072;50.678;13.938;2023-01-26T00:16:38;100211.03;;;1.96;90.07
63903;BME280;50072;50.678;13.938;2023-01-26T00:19:08;100223.28;;;1.92;89.48
63903;BME280;50072;50.678;13.938;2023-01-26T00:21:41;100217.91;;;1.87;89.40
63903;BME280;50072;50.678;13.938;2023-01-26T00:24:08;100215.31;;;1.89;89.52
63903;BME280;50072;50.678;13.938;2023-01-26T00:26:41;100222.34;;;1.88;89.86
63903;BME280;50072;50.678;13.938;2023-01-26T00:29:08;100228.47;;;1.87;90.49
63903;BME280;50072;50.678;13.938;2023-01-26T00:31:38;100215.34;;;1.90;89.72
63903;BME280;50072;50.678;13.938;2023-01-26T00:34:09;100206.53;;;1.90;90.08
63903;BME280;50072;50.678;13.938;2023-01-26T00:36:35;100204.75;;;1.89;90.52
63903;BME280;50072;50.678;13.938;2023-01-26T00:39:08;100210.03;;;1.89;89.61
63903;BME280;50072;50.678;13.938;2023-01-26T00:41:40;100203.72;;;1.82;90.41
63903;BME280;50072;50.678;13.938;2023-01-26T00:44:39;100212.66;;;1.89;90.55
63903;BME280;50072;50.678;13.938;2023-01-26T00:47:11;100203.06;;;1.93;89.77
63903;BME280;50072;50.678;13.938;2023-01-26T00:49:38;100207.38;;;1.89;90.35
63903;BME280;50072;50.678;13.938;2023-01-26T00:52:11;100199.22;;;1.77;90.42
63903;BME280;50072;50.678;13.938;2023-01-26T00:54:38;100190.31;;;1.68;90.30
63903;BME280;50072;50.678;13.938;2023-01-26T00:57:09;100199.13;;;1.70;90.74
63903;BME280;50072;50.678;13.938;2023-01-26T00:59:40;100198.22;;;1.68;90.84
63903;BME280;50072;50.678;13.938;2023-01-26T01:02:08;100205.16;;;1.65;91.30
63903;BME280;50072;50.678;13.938;2023-01-26T01:04:38;100201.78;;;1.72;91.50
63903;BME280;50072;50.678;13.938;2023-01-26T01:07:10;100204.47;;;1.75;91.10
63903;BME280;50072;50.678;13.938;2023-01-26T01:09:38;100195.63;;;1.71;91.12
63903;BME280;50072;50.678;13.938;2023-01-26T01:12:09;100202.75;;;1.76;91.56
63903;BME280;50072;50.678;13.938;2023-01-26T01:14:38;100209.78;;;1.77;91.06
63903;BME280;50072;50.678;13.938;2023-01-26T01:17:08;100202.81;;;1.79;90.99
63903;BME280;50072;50.678;13.938;2023-01-26T01:19:41;100197.59;;;1.83;91.11
63903;BME280;50072;50.678;13.938;2023-01-26T01:22:08;100203.63;;;1.76;90.83
63903;BME280;50072;50.678;13.938;2023-01-26T01:24:41;100197.78;;;1.93;90.24
63903;BME280;50072;50.678;13.938;2023-01-26T01:27:08;100201.44;;;2.01;90.05
63903;BME280;50072;50.678;13.938;2023-01-26T01:29:38;100202.19;;;1.94;90.04
63903;BME280;50072;50.678;13.938;2023-01-26T01:32:08;100202.03;;;1.84;90.40
63903;BME280;50072;50.678;13.938;2023-01-26T01:34:38;100209.91;;;1.83;90.49
63903;BME280;50072;50.678;13.938;2023-01-26T01:37:10;100199.28;;;1.78;90.82
63903;BME280;50072;50.678;13.938;2023-01-26T01:39:38;100194.84;;;1.77;90.57
63903;BME280;50072;50.678;13.938;2023-01-26T01:42:11;100190.47;;;1.79;90.58
63903;BME280;50072;50.678;13.938;2023-01-26T01:44:38;100193.03;;;1.75;90.86
63903;BME280;50072;50.678;13.938;2023-01-26T01:47:38;100182.28;;;1.64;91.52
63903;BME280;50072;50.678;13.938;2023-01-26T01:50:14;100177.72;;;1.57;91.74
63903;BME280;50072;50.678;13.938;2023-01-26T01:58:11;100174.25;;;1.58;92.69
63903;BME280;50072;50.678;13.938;2023-01-26T02:00:38;100168.97;;;1.58;93.02
63903;BME280;50072;50.678;13.938;2023-01-26T02:03:08;100157.78;;;1.71;92.73
63903;BME280;50072;50.678;13.938;2023-01-26T02:06:18;100150.75;;;1.70;92.46
63903;BME280;50072;50.678;13.938;2023-01-26T02:09:04;100150.88;;;1.78;91.95
63903;BME280;50072;50.678;13.938;2023-01-26T02:11:42;100141.94;;;1.71;91.96
63903;BME280;50072;50.678;13.938;2023-01-26T02:14:13;100132.28;;;1.70;92.54
63903;BME280;50072;50.678;13.938;2023-01-26T02:16:38;100134.88;;;1.67;92.45
63903;BME280;50072;50.678;13.938;2023-01-26T02:19:15;100131.28;;;1.65;92.62
63903;BME280;50072;50.678;13.938;2023-01-26T02:21:47;100127.75;;;1.63;92.46
63903;BME280;50072;50.678;13.938;2023-01-26T02:24:38;100128.69;;;1.68;92.43
63903;BME280;50072;50.678;13.938;2023-01-26T02:27:10;100115.34;;;1.59;92.56
63903;BME280;50072;50.678;13.938;2023-01-26T02:29:38;100117.97;;;1.57;92.93
63903;BME280;50072;50.678;13.938;2023-01-26T02:32:08;100114.41;;;1.57;93.11
63903;BME280;50072;50.678;13.938;2023-01-26T02:34:40;100114.50;;;1.60;92.37
63903;BME280;50072;50.678;13.938;2023-01-26T02:37:13;100110.09;;;1.60;92.35
63903;BME280;50072;50.678;13.938;2023-01-26T02:40:12;100111.06;;;1.65;92.72
63903;BME280;50072;50.678;13.938;2023-01-26T02:42:42;100110.19;;;1.65;92.41
63903;BME280;50072;50.678;13.938;2023-01-26T02:45:12;100109.16;;;1.57;92.81
63903;BME280;50072;50.678;13.938;2023-01-26T02:47:38;100103.03;;;1.59;92.90
63903;BME280;50072;50.678;13.938;2023-01-26T02:50:15;100093.28;;;1.53;92.79
63903;BME280;50072;50.678;13.938;2023-01-26T02:55:34;100086.25;;;1.54;92.48
63903;BME280;50072;50.678;13.938;2023-01-26T02:58:08;100089.06;;;1.65;92.46
63903;BME280;50072;50.678;13.938;2023-01-26T03:00:38;100079.38;;;1.64;92.45
63903;BME280;50072;50.678;13.938;2023-01-26T03:03:13;100084.59;;;1.61;92.50
63903;BME280;50072;50.678;13.938;2023-01-26T03:06:10;100090.84;;;1.64;92.45
63903;BME280;50072;50.678;13.938;2023-01-26T03:08:38;100082.00;;;1.64;92.67
63903;BME280;50072;50.678;13.938;2023-01-26T03:11:08;100088.25;;;1.67;92.45
63903;BME280;50072;50.678;13.938;2023-01-26T03:13:40;100077.66;;;1.64;92.38
63903;BME280;50072;50.678;13.938;2023-01-26T03:16:08;100089.03;;;1.62;92.25
63903;BME280;50072;50.678;13.938;2023-01-26T03:18:38;100079.34;;;1.62;92.68
63903;BME280;50072;50.678;13.938;2023-01-26T03:21:31;100084.06;;;1.80;91.36
63903;BME280;50072;50.678;13.938;2023-01-26T03:24:38;100074.31;;;1.76;90.91
63903;BME280;50072;50.678;13.938;2023-01-26T03:27:58;100075.19;;;1.77;90.58
63903;BME280;50072;50.678;13.938;2023-01-26T03:30:38;100069.25;;;1.87;89.60
63903;BME280;50072;50.678;13.938;2023-01-26T03:33:10;100064.78;;;1.84;89.85
63903;BME280;50072;50.678;13.938;2023-01-26T03:35:38;100064.75;;;1.81;89.41
63903;BME280;50072;50.678;13.938;2023-01-26T03:38:10;100061.97;;;1.73;90.13
63903;BME280;50072;50.678;13.938;2023-01-26T03:40:38;100066.44;;;1.79;90.08
63903;BME280;50072;50.678;13.938;2023-01-26T03:43:38;100065.50;;;1.74;90.21
63903;BME280;50072;50.678;13.938;2023-01-26T03:46:38;100069.72;;;1.63;89.74
63903;BME280;50072;50.678;13.938;2023-01-26T03:49:38;100067.91;;;1.62;90.21
63903;BME280;50072;50.678;13.938;2023-01-26T03:52:38;100072.41;;;1.66;90.15
63903;BME280;50072;50.678;13.938;2023-01-26T03:55:39;100066.09;;;1.58;90.14
63903;BME280;50072;50.678;13.938;2023-01-26T03:58:41;100056.50;;;1.61;89.65
63903;BME280;50072;50.678;13.938;2023-01-26T04:01:08;100061.78;;;1.61;89.68
63903;BME280;50072;50.678;13.938;2023-01-26T04:03:35;100056.34;;;1.53;89.77
63903;BME280;50072;50.678;13.938;2023-01-26T04:06:41;100061.56;;;1.50;90.66
63903;BME280;50072;50.678;13.938;2023-01-26T04:09:38;100048.44;;;1.53;89.99
63903;BME280;50072;50.678;13.938;2023-01-26T04:12:10;100052.84;;;1.54;89.80
63903;BME280;50072;50.678;13.938;2023-01-26T04:14:38;100045.06;;;1.62;89.81
63903;BME280;50072;50.678;13.938;2023-01-26T04:17:38;100040.59;;;1.58;89.97
63903;BME280;50072;50.678;13.938;2023-01-26T04:20:38;100033.44;;;1.51;89.48
63903;BME280;50072;50.678;13.938;2023-01-26T04:23:38;100027.28;;;1.50;90.17
63903;BME280;50072;50.678;13.938;2023-01-26T04:26:09;100025.72;;;1.62;90.75
63903;BME280;50072;50.678;13.938;2023-01-26T04:28:38;100030.16;;;1.64;90.62
63903;BME280;50072;50.678;13.938;2023-01-26T04:31:09;100035.44;;;1.64;90.04
63903;BME280;50072;50.678;13.938;2023-01-26T04:33:38;100030.34;;;1.77;89.10
63903;BME280;50072;50.678;13.938;2023-01-26T04:36:06;100034.69;;;1.73;89.51
63903;BME280;50072;50.678;13.938;2023-01-26T04:38:32;100032.88;;;1.69;90.07
63903;BME280;50072;50.678;13.938;2023-01-26T04:40:58;100032.44;;;1.44;91.10
63903;BME280;50072;50.678;13.938;2023-01-26T04:43:38;100027.03;;;1.36;91.82
63903;BME280;50072;50.678;13.938;2023-01-26T04:46:10;100024.38;;;1.35;91.80
63903;BME280;50072;50.678;13.938;2023-01-26T04:48:39;100022.81;;;1.46;91.90
63903;BME280;50072;50.678;13.938;2023-01-26T04:51:11;100016.69;;;1.49;91.50
63903;BME280;50072;50.678;13.938;2023-01-26T04:53:38;100015.03;;;1.54;91.69
63903;BME280;50072;50.678;13.938;2023-01-26T04:56:25;100020.44;;;1.62;91.46
63903;BME280;50072;50.678;13.938;2023-01-26T04:59:01;100013.41;;;1.64;90.48
63903;BME280;50072;50.678;13.938;2023-01-26T05:01:27;100006.34;;;1.60;90.43
63903;BME280;50072;50.678;13.938;2023-01-26T05:03:53;100015.19;;;1.65;90.84
63903;BME280;50072;50.678;13.938;2023-01-26T05:06:19;100011.72;;;1.66;90.68
63903;BME280;50072;50.678;13.938;2023-01-26T05:08:45;100017.00;;;1.66;90.63
63903;BME280;50072;50.678;13.938;2023-01-26T05:11:11;100019.53;;;1.60;91.11
63903;BME280;50072;50.678;13.938;2023-01-26T05:13:37;100021.94;;;1.47;91.64
63903;BME280;50072;50.678;13.938;2023-01-26T05:16:05;100021.72;;;1.35;92.25
63903;BME280;50072;50.678;13.938;2023-01-26T05:18:39;100024.28;;;1.30;92.74
63903;BME280;50072;50.678;13.938;2023-01-26T05:21:05;100016.22;;;1.23;93.84
63903;BME280;50072;50.678;13.938;2023-01-26T05:23:31;100031.97;;;1.19;94.13
63903;BME280;50072;50.678;13.938;2023-01-26T05:25:57;100027.59;;;1.18;94.20
63903;BME280;50072;50.678;13.938;2023-01-26T05:28:23;100025.00;;;1.22;94.60
63903;BME280;50072;50.678;13.938;2023-01-26T05:30:51;100032.03;;;1.23;94.08
63903;BME280;50072;50.678;13.938;2023-01-26T05:33:22;100024.25;;;1.29;93.85
63903;BME280;50072;50.678;13.938;2023-01-26T05:35:48;100030.56;;;1.37;94.01
63903;BME280;50072;50.678;13.938;2023-01-26T05:38:15;100022.56;;;1.32;93.37
63903;BME280;50072;50.678;13.938;2023-01-26T05:40:41;100022.66;;;1.37;93.12
63903;BME280;50072;50.678;13.938;2023-01-26T05:43:07;100032.31;;;1.38;93.00
63903;BME280;50072;50.678;13.938;2023-01-26T05:45:33;100030.63;;;1.40;92.96
63903;BME280;50072;50.678;13.938;2023-01-26T05:47:59;100032.28;;;1.35;92.73
63903;BME280;50072;50.678;13.938;2023-01-26T05:50:26;100019.75;;;1.22;93.48
63903;BME280;50072;50.678;13.938;2023-01-26T05:52:52;100026.66;;;1.16;94.56
63903;BME280;50072;50.678;13.938;2023-01-26T05:55:20;100024.81;;;1.12;95.06
63903;BME280;50072;50.678;13.938;2023-01-26T05:57:46;100023.97;;;1.13;95.28
63903;BME280;50072;50.678;13.938;2023-01-26T06:00:38;100024.00;;;1.15;95.45
63903;BME280;50072;50.678;13.938;2023-01-26T06:03:08;100027.44;;;1.11;95.53
63903;BME280;50072;50.678;13.938;2023-01-26T06:05:34;100028.34;;;1.11;95.39
63903;BME280;50072;50.678;13.938;2023-01-26T06:08:10;100013.31;;;1.06;95.81
63903;BME280;50072;50.678;13.938;2023-01-26T06:10:37;100026.50;;;1.07;95.82
63903;BME280;50072;50.678;13.938;2023-01-26T06:13:08;100017.94;;;1.20;95.85
63903;BME280;50072;50.678;13.938;2023-01-26T06:15:40;100025.19;;;1.32;96.46
63903;BME280;50072;50.678;13.938;2023-01-26T06:18:08;100023.66;;;1.45;95.60
63903;BME280;50072;50.678;13.938;2023-01-26T06:20:40;100025.59;;;1.54;95.47
63903;BME280;50072;50.678;13.938;2023-01-26T06:23:08;100026.50;;;1.56;95.78
63903;BME280;50072;50.678;13.938;2023-01-26T06:26:04;100019.53;;;1.60;95.50
63903;BME280;50072;50.678;13.938;2023-01-26T06:28:37;100021.25;;;1.59;95.24
63903;BME280;50072;50.678;13.938;2023-01-26T06:31:08;100024.81;;;1.60;95.21
63903;BME280;50072;50.678;13.938;2023-01-26T06:33:41;100031.84;;;1.61;95.19
63903;BME280;50072;50.678;13.938;2023-01-26T06:36:11;100009.78;;;1.54;95.23
63903;BME280;50072;50.678;13.938;2023-01-26T06:38:43;100019.34;;;1.49;95.85
63903;BME280;50072;50.678;13.938;2023-01-26T06:41:09;100025.41;;;1.43;96.57
63903;BME280;50072;50.678;13.938;2023-01-26T06:43:35;100017.34;;;1.35;96.77
63903;BME280;50072;50.678;13.938;2023-01-26T06:46:03;100015.63;;;1.37;96.20
63903;BME280;50072;50.678;13.938;2023-01-26T06:48:35;100008.50;;;1.33;96.09
63903;BME280;50072;50.678;13.938;2023-01-26T06:53:47;100009.38;;;1.34;96.52
63903;BME280;50072;50.678;13.938;2023-01-26T06:56:27;100010.50;;;1.47;96.37
63903;BME280;50072;50.678;13.938;2023-01-26T06:59:09;100012.19;;;1.42;96.00
63903;BME280;50072;50.678;13.938;2023-01-26T07:01:44;100006.94;;;1.43;95.99
63903;BME280;50072;50.678;13.938;2023-01-26T07:04:38;100014.94;;;1.49;95.78
63903;BME280;50072;50.678;13.938;2023-01-26T07:07:08;100021.94;;;1.47;95.45
63903;BME280;50072;50.678;13.938;2023-01-26T07:09:36;100019.38;;;1.52;95.69
63903;BME280;50072;50.678;13.938;2023-01-26T07:12:03;100014.97;;;1.52;96.09
63903;BME280;50072;50.678;13.938;2023-01-26T07:14:31;100020.25;;;1.52;96.03
63903;BME280;50072;50.678;13.938;2023-01-26T07:16:58;100012.28;;;1.48;96.02
63903;BME280;50072;50.678;13.938;2023-01-26T07:19:24;100009.97;;;1.68;95.26
63903;BME280;50072;50.678;13.938;2023-01-26T07:21:50;100019.59;;;1.64;94.72
63903;BME280;50072;50.678;13.938;2023-01-26T07:24:17;100009.78;;;1.55;94.82
63903;BME280;50072;50.678;13.938;2023-01-26T07:26:44;100003.56;;;1.52;95.10
63903;BME280;50072;50.678;13.938;2023-01-26T07:29:11;100001.88;;;1.55;95.22
63903;BME280;50072;50.678;13.938;2023-01-26T07:31:37;99998.50;;;1.64;94.00
63903;BME280;50072;50.678;13.938;2023-01-26T07:34:04;99999.41;;;1.66;94.19
63903;BME280;50072;50.678;13.938;2023-01-26T07:36:30;100001.06;;;1.60;94.39
63903;BME280;50072;50.678;13.938;2023-01-26T07:38:57;99999.25;;;1.55;94.94
63903;BME280;50072;50.678;13.938;2023-01-26T07:41:22;99995.72;;;1.57;94.69
63903;BME280;50072;50.678;13.938;2023-01-26T07:43:49;99996.50;;;1.51;94.97
63903;BME280;50072;50.678;13.938;2023-01-26T07:46:17;99996.56;;;1.54;95.00
63903;BME280;50072;50.678;13.938;2023-01-26T07:48:44;100004.34;;;1.46;95.02
63903;BME280;50072;50.678;13.938;2023-01-26T07:51:12;100010.31;;;1.34;95.78
63903;BME280;50072;50.678;13.938;2023-01-26T07:53:38;100011.03;;;1.26;96.13
63903;BME280;50072;50.678;13.938;2023-01-26T07:56:12;100008.41;;;1.27;96.32
63903;BME280;50072;50.678;13.938;2023-01-26T07:58:39;100015.69;;;1.42;95.71
63903;BME280;50072;50.678;13.938;2023-01-26T08:01:11;100013.19;;;1.48;95.15
63903;BME280;50072;50.678;13.938;2023-01-26T08:03:39;100012.47;;;1.59;95.17
63903;BME280;50072;50.678;13.938;2023-01-26T08:06:06;100001.13;;;1.63;95.11
63903;BME280;50072;50.678;13.938;2023-01-26T08:08:34;100013.41;;;1.64;94.85
63903;BME280;50072;50.678;13.938;2023-01-26T08:11:01;100010.81;;;1.65;95.13
63903;BME280;50072;50.678;13.938;2023-01-26T08:13:29;100003.13;;;1.79;94.92
63903;BME280;50072;50.678;13.938;2023-01-26T08:16:06;100005.75;;;1.79;94.25
63903;BME280;50072;50.678;13.938;2023-01-26T08:18:38;100008.41;;;1.79;93.92
63903;BME280;50072;50.678;13.938;2023-01-26T08:21:05;100003.31;;;1.90;93.62
63903;BME280;50072;50.678;13.938;2023-01-26T08:23:32;100007.78;;;1.96;93.66
63903;BME280;50072;50.678;13.938;2023-01-26T08:26:01;100005.09;;;1.93;94.03
63903;BME280;50072;50.678;13.938;2023-01-26T08:28:28;99998.97;;;1.95;93.49
63903;BME280;50072;50.678;13.938;2023-01-26T08:30:54;100003.44;;;2.01;93.21
63903;BME280;50072;50.678;13.938;2023-01-26T08:33:22;99996.50;;;2.06;93.42
63903;BME280;50072;50.678;13.938;2023-01-26T08:35:48;100002.53;;;1.99;93.17
63903;BME280;50072;50.678;13.938;2023-01-26T08:38:15;99999.13;;;2.04;92.86
63903;BME280;50072;50.678;13.938;2023-01-26T08:40:41;99995.25;;;1.84;92.72
63903;BME280;50072;50.678;13.938;2023-01-26T08:43:08;99993.50;;;1.83;93.25
63903;BME280;50072;50.678;13.938;2023-01-26T08:45:34;100000.69;;;1.93;93.12
63903;BME280;50072;50.678;13.938;2023-01-26T08:48:00;99997.16;;;1.91;93.50
63903;BME280;50072;50.678;13.938;2023-01-26T08:50:26;99990.31;;;2.04;92.90
63903;BME280;50072;50.678;13.938;2023-01-26T08:52:54;99992.09;;;2.06;92.99
63903;BME280;50072;50.678;13.938;2023-01-26T08:55:21;99997.47;;;2.11;93.07
63903;BME280;50072;50.678;13.938;2023-01-26T08:57:51;99991.22;;;2.07;92.44
63903;BME280;50072;50.678;13.938;2023-01-26T09:00:21;100003.59;;;2.10;92.18
63903;BME280;50072;50.678;13.938;2023-01-26T09:02:48;99995.66;;;2.10;92.97
63903;BME280;50072;50.678;13.938;2023-01-26T09:05:14;99996.56;;;2.12;92.45
63903;BME280;50072;50.678;13.938;2023-01-26T09:07:42;99990.50;;;2.19;90.97
63903;BME280;50072;50.678;13.938;2023-01-26T09:10:09;99994.09;;;2.23;91.02
63903;BME280;50072;50.678;13.938;2023-01-26T09:12:37;99993.09;;;2.16;91.78
63903;BME280;50072;50.678;13.938;2023-01-26T09:15:03;99989.53;;;2.11;91.51
63903;BME280;50072;50.678;13.938;2023-01-26T09:17:30;99998.34;;;2.13;92.58
63903;BME280;50072;50.678;13.938;2023-01-26T09:19:57;99996.69;;;2.18;92.39
63903;BME280;50072;50.678;13.938;2023-01-26T09:22:24;99998.53;;;2.24;91.16
63903;BME280;50072;50.678;13.938;2023-01-26T09:24:50;100003.78;;;2.22;91.55
63903;BME280;50072;50.678;13.938;2023-01-26T09:27:17;100007.09;;;2.09;90.61
63903;BME280;50072;50.678;13.938;2023-01-26T09:29:43;100000.22;;;2.20;90.92
63903;BME280;50072;50.678;13.938;2023-01-26T09:32:09;100000.34;;;2.30;89.60
63903;BME280;50072;50.678;13.938;2023-01-26T09:34:35;99997.81;;;2.37;89.16
63903;BME280;50072;50.678;13.938;2023-01-26T09:37:02;100005.69;;;2.33;89.09
63903;BME280;50072;50.678;13.938;2023-01-26T09:39:27;100006.47;;;2.27;88.62
63903;BME280;50072;50.678;13.938;2023-01-26T09:44:46;100003.09;;;2.37;86.98
63903;BME280;50072;50.678;13.938;2023-01-26T09:47:30;99998.84;;;2.50;86.51
63903;BME280;50072;50.678;13.938;2023-01-26T09:50:16;100013.63;;;2.36;86.78
63903;BME280;50072;50.678;13.938;2023-01-26T09:55:20;100014.47;;;2.33;85.91
63903;BME280;50072;50.678;13.938;2023-01-26T09:57:50;100015.41;;;2.37;86.03
63903;BME280;50072;50.678;13.938;2023-01-26T10:00:22;100015.50;;;2.43;85.89
63903;BME280;50072;50.678;13.938;2023-01-26T10:06:01;100006.84;;;2.55;85.35
63903;BME280;50072;50.678;13.938;2023-01-26T10:08:31;100014.78;;;2.56;85.84
63903;BME280;50072;50.678;13.938;2023-01-26T10:11:05;100007.81;;;2.62;85.59
63903;BME280;50072;50.678;13.938;2023-01-26T10:13:36;100003.28;;;2.51;84.40
63903;BME280;50072;50.678;13.938;2023-01-26T10:16:05;100003.38;;;2.61;84.39
63903;BME280;50072;50.678;13.938;2023-01-26T10:18:39;100005.97;;;2.54;82.26
63903;BME280;50072;50.678;13.938;2023-01-26T10:21:09;100005.91;;;2.51;82.15
63903;BME280;50072;50.678;13.938;2023-01-26T10:23:44;99997.13;;;2.52;81.92
63903;BME280;50072;50.678;13.938;2023-01-26T10:26:21;99994.50;;;2.52;82.78
63903;BME280;50072;50.678;13.938;2023-01-26T10:29:03;99990.94;;;2.52;81.39
63903;BME280;50072;50.678;13.938;2023-01-26T10:31:35;99988.22;;;2.46;81.98
63903;BME280;50072;50.678;13.938;2023-01-26T10:34:14;99989.97;;;2.45;81.15
63903;BME280;50072;50.678;13.938;2023-01-26T10:36:44;99991.72;;;2.43;81.87
63903;BME280;50072;50.678;13.938;2023-01-26T10:42:40;99986.47;;;2.46;81.37
63903;BME280;50072;50.678;13.938;2023-01-26T10:45:29;99975.03;;;2.47;82.69
63903;BME280;50072;50.678;13.938;2023-01-26T10:51:14;99968.97;;;2.54;81.73
63903;BME280;50072;50.678;13.938;2023-01-26T10:53:40;99965.47;;;2.55;80.84
63903;BME280;50072;50.678;13.938;2023-01-26T10:56:13;99977.78;;;2.56;80.71
63903;BME280;50072;50.678;13.938;2023-01-26T10:58:53;99983.06;;;2.55;80.89
63903;BME280;50072;50.678;13.938;2023-01-26T11:02:00;99975.03;;;2.47;81.01
63903;BME280;50072;50.678;13.938;2023-01-26T11:04:38;99982.88;;;2.39;80.02
63903;BME280;50072;50.678;13.938;2023-01-26T11:07:39;99981.97;;;2.37;79.49
63903;BME280;50072;50.678;13.938;2023-01-26T11:10:39;99981.16;;;2.43;80.85
63903;BME280;50072;50.678;13.938;2023-01-26T11:13:38;99979.34;;;2.39;79.94
63903;BME280;50072;50.678;13.938;2023-01-26T11:16:14;99973.19;;;2.40;81.15
63903;BME280;50072;50.678;13.938;2023-01-26T11:21:47;99967.06;;;2.41;80.05
63903;BME280;50072;50.678;13.938;2023-01-26T11:24:33;99969.59;;;2.36;79.68
63903;BME280;50072;50.678;13.938;2023-01-26T11:27:39;99959.91;;;2.34;79.14
63903;BME280;50072;50.678;13.938;2023-01-26T11:30:27;99959.00;;;2.33;78.87
63903;BME280;50072;50.678;13.938;2023-01-26T11:45:16;99944.13;;;2.40;80.37
63903;BME280;50072;50.678;13.938;2023-01-26T11:50:56;99947.66;;;2.42;81.07
63903;BME280;50072;50.678;13.938;2023-01-26T11:53:36;99951.25;;;2.44;81.15
63903;BME280;50072;50.678;13.938;2023-01-26T11:56:36;99939.78;;;2.45;80.83
63903;BME280;50072;50.678;13.938;2023-01-26T11:59:22;99933.63;;;2.46;81.37
63903;BME280;50072;50.678;13.938;2023-01-26T12:04:42;99930.97;;;2.45;80.75
63903;BME280;50072;50.678;13.938;2023-01-26T12:07:45;99932.59;;;2.33;81.46
63903;BME280;50072;50.678;13.938;2023-01-26T12:10:57;99927.34;;;2.35;82.47
63903;BME280;50072;50.678;13.938;2023-01-26T12:28:09;99897.34;;;2.28;82.17
63903;BME280;50072;50.678;13.938;2023-01-26T12:33:22;99903.44;;;2.24;83.02
63903;BME280;50072;50.678;13.938;2023-01-26T12:39:09;99897.34;;;2.28;83.21
63903;BME280;50072;50.678;13.938;2023-01-26T12:44:46;99894.59;;;2.22;82.28
63903;BME280;50072;50.678;13.938;2023-01-26T12:47:49;99884.97;;;2.26;82.31
63903;BME280;50072;50.678;13.938;2023-01-26T12:50:39;99890.31;;;2.30;81.44
63903;BME280;50072;50.678;13.938;2023-01-26T12:53:30;99886.72;;;2.25;81.71
63903;BME280;50072;50.678;13.938;2023-01-26T12:58:56;99887.59;;;2.22;82.05
63903;BME280;50072;50.678;13.938;2023-01-26T13:01:26;99886.72;;;2.25;81.46
63903;BME280;50072;50.678;13.938;2023-01-26T13:04:08;99881.38;;;2.20;81.47
63903;BME280;50072;50.678;13.938;2023-01-26T13:06:34;99880.53;;;2.21;81.40
63903;BME280;50072;50.678;13.938;2023-01-26T13:09:17;99873.38;;;2.13;81.80
63903;BME280;50072;50.678;13.938;2023-01-26T13:11:49;99877.88;;;2.20;81.04
63903;BME280;50072;50.678;13.938;2023-01-26T13:33:02;99855.81;;;2.16;80.79
63903;BME280;50072;50.678;13.938;2023-01-26T13:35:30;99854.94;;;2.17;80.41
63903;BME280;50072;50.678;13.938;2023-01-26T13:38:07;99852.19;;;2.08;81.21
63903;BME280;50072;50.678;13.938;2023-01-26T13:40:39;99850.44;;;2.07;81.98
63903;BME280;50072;50.678;13.938;2023-01-26T13:48:50;99839.88;;;2.07;80.90
63903;BME280;50072;50.678;13.938;2023-01-26T13:51:27;99845.97;;;2.01;81.16
63903;BME280;50072;50.678;13.938;2023-01-26T13:54:05;99855.59;;;1.99;81.01
63903;BME280;50072;50.678;13.938;2023-01-26T13:56:35;99853.72;;;1.90;81.76
63903;BME280;50072;50.678;13.938;2023-01-26T14:01:51;99862.59;;;1.96;81.36
63903;BME280;50072;50.678;13.938;2023-01-26T14:04:24;99858.13;;;1.90;82.16
63903;BME280;50072;50.678;13.938;2023-01-26T14:07:08;99859.78;;;1.83;82.05
63903;BME280;50072;50.678;13.938;2023-01-26T14:09:47;99866.81;;;1.80;82.45
63903;BME280;50072;50.678;13.938;2023-01-26T14:15:00;99870.25;;;1.74;82.17
63903;BME280;50072;50.678;13.938;2023-01-26T14:17:30;99872.78;;;1.69;82.70
63903;BME280;50072;50.678;13.938;2023-01-26T14:19:57;99870.13;;;1.68;82.75
63903;BME280;50072;50.678;13.938;2023-01-26T14:22:28;99866.69;;;1.72;83.37
63903;BME280;50072;50.678;13.938;2023-01-26T14:24:56;99871.09;;;1.73;83.03
63903;BME280;50072;50.678;13.938;2023-01-26T14:27:38;99858.81;;;1.75;82.29
63903;BME280;50072;50.678;13.938;2023-01-26T14:30:25;99859.66;;;1.72;82.12
63903;BME280;50072;50.678;13.938;2023-01-26T14:33:13;99862.25;;;1.71;82.88
63903;BME280;50072;50.678;13.938;2023-01-26T14:35:42;99865.81;;;1.73;82.61
63903;BME280;50072;50.678;13.938;2023-01-26T14:38:15;99864.88;;;1.69;82.13
63903;BME280;50072;50.678;13.938;2023-01-26T14:40:45;99868.38;;;1.67;81.81
63903;BME280;50072;50.678;13.938;2023-01-26T14:43:12;99870.06;;;1.62;82.58
63903;BME280;50072;50.678;13.938;2023-01-26T14:45:50;99877.13;;;1.64;82.49
63903;BME280;50072;50.678;13.938;2023-01-26T14:48:21;99878.78;;;1.58;82.80
63903;BME280;50072;50.678;13.938;2023-01-26T14:50:52;99870.91;;;1.61;83.31
63903;BME280;50072;50.678;13.938;2023-01-26T14:53:20;99877.00;;;1.55;82.30
63903;BME280;50072;50.678;13.938;2023-01-26T14:55:48;99881.25;;;1.47;82.86
63903;BME280;50072;50.678;13.938;2023-01-26T14:58:23;99883.97;;;1.50;83.35
63903;BME280;50072;50.678;13.938;2023-01-26T15:00:52;99873.34;;;1.47;83.63
63903;BME280;50072;50.678;13.938;2023-01-26T15:05:46;99879.59;;;1.53;83.66
63903;BME280;50072;50.678;13.938;2023-01-26T15:08:21;99883.09;;;1.52;84.11
63903;BME280;50072;50.678;13.938;2023-01-26T15:10:59;99873.50;;;1.58;84.18
63903;BME280;50072;50.678;13.938;2023-01-26T15:13:46;99869.00;;;1.50;84.25
63903;BME280;50072;50.678;13.938;2023-01-26T15:16:16;99873.41;;;1.48;84.57